Time;durP1;ratioP1;P1;durP2;ratioP2;P2;SDS_P1;SDS_P2;PMS_P1;PMS_P2;Temp;Humidity;BMP_temperature;BMP_pressure;BME280_temperature;BME280_humidity;BME280_pressure;Samples;Min_cycle;Max_cycle;Signal;HPM_P1;HPM_P2
2022/10/07 00:02:16;;;;;;;;;;;20.10;99.90;;;;;;5018154;28;19925;-66
2022/10/07 00:04:45;;;;;;;;;;;20.20;99.90;;;;;;5013497;28;19929;-67
2022/10/07 00:07:13;;;;;;;;;;;20.10;99.90;;;;;;5005422;28;19926;-67
2022/10/07 00:09:40;;;;;;;;;;;20.10;99.90;;;;;;5023116;28;19929;-66
2022/10/07 00:12:07;;;;;;;;;;;20.10;99.90;;;;;;5000691;28;19937;-66
2022/10/07 00:14:34;;;;;;;;;;;20.10;99.90;;;;;;5020566;28;19933;-66
2022/10/07 00:17:02;;;;;;;;;;;20.10;99.90;;;;;;5005369;28;19925;-67
2022/10/07 00:19:30;;;;;;;;;;;20.10;99.90;;;;;;5010183;28;20398;-66
2022/10/07 00:21:57;;;;;;;;;;;20.10;99.90;;;;;;5013633;28;19925;-67
2022/10/07 00:24:24;;;;;;;;;;;20.10;99.90;;;;;;5014760;28;19934;-66
2022/10/07 00:26:51;;;;;;;;;;;20.00;99.90;;;;;;5013306;28;20397;-66
2022/10/07 00:29:22;;;;;;;;;;;20.00;99.90;;;;;;5012697;28;19937;-66
2022/10/07 00:31:50;;;;;;;;;;;20.00;99.90;;;;;;5015680;28;19926;-66
2022/10/07 00:34:23;;;;;;;;;;;20.00;99.90;;;;;;5013580;28;19929;-66
2022/10/07 00:36:51;;;;;;;;;;;20.00;99.90;;;;;;5010094;28;20297;-66
2022/10/07 00:39:18;;;;;;;;;;;20.00;99.90;;;;;;5008850;28;20316;-64
2022/10/07 00:41:49;;;;;;;;;;;20.00;99.90;;;;;;5015550;28;19932;-66
2022/10/07 00:44:34;;;;;;;;;;;20.00;99.90;;;;;;5008455;28;19929;-66
2022/10/07 00:47:20;;;;;;;;;;;20.00;99.90;;;;;;5005463;28;19925;-65
2022/10/07 00:50:08;;;;;;;;;;;20.00;99.90;;;;;;5004194;28;19929;-66
2022/10/07 00:52:44;;;;;;;;;;;20.00;99.90;;;;;;4994169;28;19932;-66
2022/10/07 00:55:13;;;;;;;;;;;20.00;99.90;;;;;;4983281;28;19933;-65
2022/10/07 00:57:41;;;;;;;;;;;19.90;99.90;;;;;;4990363;28;19937;-64
2022/10/07 01:00:09;;;;;;;;;;;20.00;99.90;;;;;;4979705;28;20394;-67
2022/10/07 01:02:36;;;;;;;;;;;19.90;99.90;;;;;;4989097;28;19926;-66
2022/10/07 01:05:04;;;;;;;;;;;19.90;99.90;;;;;;4985580;28;19925;-65
2022/10/07 01:07:32;;;;;;;;;;;19.90;99.90;;;;;;4988628;28;19926;-65
2022/10/07 01:09:59;;;;;;;;;;;19.90;99.90;;;;;;4992103;28;19941;-65
2022/10/07 01:12:26;;;;;;;;;;;19.90;99.90;;;;;;4988605;28;19927;-67
2022/10/07 01:14:59;;;;;;;;;;;19.90;99.90;;;;;;4989858;28;19929;-66
2022/10/07 01:17:31;;;;;;;;;;;19.90;99.90;;;;;;4981845;28;19933;-66
2022/10/07 01:20:14;;;;;;;;;;;19.80;99.90;;;;;;4983803;28;19937;-65
2022/10/07 01:22:44;;;;;;;;;;;19.80;99.90;;;;;;4988073;28;19948;-65
2022/10/07 01:25:11;;;;;;;;;;;19.80;99.90;;;;;;4995894;28;19940;-65
2022/10/07 01:27:41;;;;;;;;;;;19.80;99.90;;;;;;4985959;28;19927;-66
2022/10/07 01:30:09;;;;;;;;;;;19.80;99.90;;;;;;4975109;28;19930;-66
2022/10/07 01:32:39;;;;;;;;;;;19.80;99.90;;;;;;4994449;28;19930;-66
2022/10/07 01:35:12;;;;;;;;;;;19.80;99.90;;;;;;4982785;28;19926;-64
2022/10/07 01:37:42;;;;;;;;;;;19.80;99.90;;;;;;4984217;28;19929;-66
2022/10/07 01:40:13;;;;;;;;;;;19.80;99.90;;;;;;4997287;28;20333;-65
2022/10/07 01:42:40;;;;;;;;;;;19.80;99.90;;;;;;4991505;28;19930;-66
2022/10/07 01:45:08;;;;;;;;;;;19.80;99.90;;;;;;4987456;28;19930;-65
2022/10/07 01:47:38;;;;;;;;;;;19.80;99.90;;;;;;4981027;28;20336;-65
2022/10/07 01:50:11;;;;;;;;;;;19.80;99.90;;;;;;4999980;28;19934;-62
2022/10/07 01:52:59;;;;;;;;;;;19.70;99.90;;;;;;4991237;28;19929;-65
2022/10/07 01:55:34;;;;;;;;;;;19.80;99.90;;;;;;4994656;28;19926;-66
2022/10/07 01:58:11;;;;;;;;;;;19.70;99.90;;;;;;5011389;28;19944;-67
2022/10/07 02:00:42;;;;;;;;;;;19.70;99.90;;;;;;5005988;28;19936;-66
2022/10/07 02:03:28;;;;;;;;;;;19.70;99.90;;;;;;5012380;28;19929;-66
2022/10/07 02:06:02;;;;;;;;;;;19.70;99.90;;;;;;5010932;28;20296;-66
2022/10/07 02:08:37;;;;;;;;;;;19.70;99.90;;;;;;5002652;28;19929;-66
2022/10/07 02:11:10;;;;;;;;;;;19.70;99.90;;;;;;5014175;28;19929;-65
2022/10/07 02:13:43;;;;;;;;;;;19.70;99.90;;;;;;5004033;28;20385;-64
2022/10/07 02:16:16;;;;;;;;;;;19.70;99.90;;;;;;5015713;28;19932;-66
2022/10/07 02:18:47;;;;;;;;;;;19.70;99.90;;;;;;5016938;28;20354;-66
2022/10/07 02:21:15;;;;;;;;;;;19.70;99.90;;;;;;5023547;28;19930;-66
2022/10/07 02:23:43;;;;;;;;;;;19.70;99.90;;;;;;5013704;28;19925;-66
2022/10/07 02:26:13;;;;;;;;;;;19.70;99.90;;;;;;5006689;28;19951;-65
2022/10/07 02:28:41;;;;;;;;;;;19.70;99.90;;;;;;5016347;28;19928;-67
2022/10/07 02:31:11;;;;;;;;;;;19.70;99.90;;;;;;5010754;28;19929;-66
2022/10/07 02:33:40;;;;;;;;;;;19.60;99.90;;;;;;5007165;28;19930;-65
2022/10/07 02:36:11;;;;;;;;;;;19.70;99.90;;;;;;5006958;28;19925;-66
2022/10/07 02:38:39;;;;;;;;;;;19.70;99.90;;;;;;5021466;28;20401;-66
2022/10/07 02:41:31;;;;;;;;;;;19.60;99.90;;;;;;5015621;28;19930;-66
2022/10/07 02:44:05;;;;;;;;;;;19.60;99.90;;;;;;5019120;28;19926;-65
2022/10/07 02:46:37;;;;;;;;;;;19.70;99.90;;;;;;5016409;28;19929;-65
2022/10/07 02:49:07;;;;;;;;;;;19.60;99.90;;;;;;5005647;28;20398;-66
2022/10/07 02:51:38;;;;;;;;;;;19.60;99.90;;;;;;5017539;28;19960;-66
2022/10/07 02:54:05;;;;;;;;;;;19.60;99.90;;;;;;4993529;28;19937;-66
2022/10/07 02:56:35;;;;;;;;;;;19.60;99.90;;;;;;5013730;28;19936;-66
2022/10/07 02:59:05;;;;;;;;;;;19.60;99.90;;;;;;5013284;28;20392;-66
2022/10/07 03:01:36;;;;;;;;;;;19.60;99.90;;;;;;5008500;28;20322;-66
2022/10/07 03:04:04;;;;;;;;;;;19.60;99.90;;;;;;5014847;28;20301;-65
2022/10/07 03:06:34;;;;;;;;;;;19.60;99.90;;;;;;5029473;28;20452;-66
2022/10/07 03:09:02;;;;;;;;;;;19.60;99.90;;;;;;5009910;28;19946;-66
2022/10/07 03:11:29;;;;;;;;;;;19.50;99.90;;;;;;5011014;28;19929;-67
2022/10/07 03:13:57;;;;;;;;;;;19.50;99.90;;;;;;5003152;28;19941;-66
2022/10/07 03:16:25;;;;;;;;;;;19.60;99.90;;;;;;5007166;28;19934;-66
2022/10/07 03:18:53;;;;;;;;;;;19.60;99.90;;;;;;5014554;28;19929;-66
2022/10/07 03:21:25;;;;;;;;;;;19.50;99.90;;;;;;5012901;28;19930;-65
2022/10/07 03:23:54;;;;;;;;;;;19.50;99.90;;;;;;5005088;28;19937;-66
2022/10/07 03:26:27;;;;;;;;;;;19.50;99.90;;;;;;5005792;28;19930;-66
2022/10/07 03:28:54;;;;;;;;;;;19.50;99.90;;;;;;5012231;28;20746;-66
2022/10/07 03:31:23;;;;;;;;;;;19.50;99.90;;;;;;5015481;28;19930;-66
2022/10/07 03:33:55;;;;;;;;;;;19.50;99.90;;;;;;5007581;28;19929;-66
2022/10/07 03:36:23;;;;;;;;;;;19.50;99.90;;;;;;5007843;28;20184;-66
2022/10/07 03:38:50;;;;;;;;;;;19.50;99.90;;;;;;5011725;28;20325;-66
2022/10/07 03:41:18;;;;;;;;;;;19.40;99.90;;;;;;5009552;28;19933;-66
2022/10/07 03:43:48;;;;;;;;;;;19.50;99.90;;;;;;5019666;28;19936;-65
2022/10/07 03:46:20;;;;;;;;;;;19.40;99.90;;;;;;5002405;28;20401;-66
2022/10/07 03:48:48;;;;;;;;;;;19.40;99.90;;;;;;5014035;28;19930;-66
2022/10/07 03:51:16;;;;;;;;;;;19.40;99.90;;;;;;5002334;28;19933;-65
2022/10/07 03:53:44;;;;;;;;;;;19.50;99.90;;;;;;5018619;28;19929;-66
2022/10/07 03:56:11;;;;;;;;;;;19.70;99.90;;;;;;5010736;28;20504;-65
2022/10/07 03:58:41;;;;;;;;;;;19.90;99.90;;;;;;5015886;28;19932;-66
2022/10/07 04:01:13;;;;;;;;;;;20.30;99.90;;;;;;5014437;28;20385;-65
2022/10/07 04:03:46;;;;;;;;;;;20.70;99.90;;;;;;5014761;28;19930;-65
2022/10/07 04:06:13;;;;;;;;;;;21.00;99.90;;;;;;5014867;28;19930;-65
2022/10/07 04:08:43;;;;;;;;;;;21.30;99.90;;;;;;5018299;28;19956;-65
2022/10/07 04:11:11;;;;;;;;;;;21.60;99.90;;;;;;5014445;28;20324;-65
2022/10/07 04:13:40;;;;;;;;;;;21.80;99.90;;;;;;5016651;28;19929;-65
2022/10/07 04:16:08;;;;;;;;;;;21.90;99.90;;;;;;5018082;28;19929;-64
2022/10/07 04:18:36;;;;;;;;;;;22.00;99.90;;;;;;5018167;28;19944;-65
2022/10/07 04:21:04;;;;;;;;;;;22.00;99.90;;;;;;5016569;28;19990;-65
2022/10/07 04:23:33;;;;;;;;;;;22.10;99.90;;;;;;5003440;28;19925;-64
2022/10/07 04:26:01;;;;;;;;;;;22.10;99.90;;;;;;5011446;28;19948;-65
2022/10/07 04:28:29;;;;;;;;;;;22.20;99.90;;;;;;5020745;28;19929;-65
2022/10/07 04:31:06;;;;;;;;;;;22.30;99.90;;;;;;5007131;28;20421;-64
2022/10/07 04:33:38;;;;;;;;;;;22.30;99.90;;;;;;5004311;28;19940;-64
2022/10/07 04:36:06;;;;;;;;;;;22.30;99.90;;;;;;5005119;28;19925;-65
2022/10/07 04:38:37;;;;;;;;;;;22.30;99.90;;;;;;5008659;28;19940;-66
2022/10/07 04:41:05;;;;;;;;;;;22.30;99.90;;;;;;5012960;28;20017;-65
2022/10/07 04:43:34;;;;;;;;;;;22.20;99.90;;;;;;5015487;28;19929;-65
2022/10/07 04:46:07;;;;;;;;;;;22.20;99.90;;;;;;5009258;28;19966;-65
2022/10/07 04:48:42;;;;;;;;;;;22.20;99.90;;;;;;5014802;28;19929;-65
2022/10/07 04:51:09;;;;;;;;;;;22.10;99.90;;;;;;5014302;28;20290;-65
2022/10/07 04:53:38;;;;;;;;;;;22.10;99.90;;;;;;5013901;28;19933;-64
2022/10/07 04:56:07;;;;;;;;;;;22.00;99.90;;;;;;5011800;28;19933;-67
2022/10/07 04:58:34;;;;;;;;;;;22.00;99.90;;;;;;5004035;28;19937;-65
2022/10/07 05:01:06;;;;;;;;;;;22.00;99.90;;;;;;5010201;28;20250;-64
2022/10/07 05:03:34;;;;;;;;;;;21.90;99.90;;;;;;5017980;28;19932;-66
2022/10/07 05:06:05;;;;;;;;;;;21.80;99.90;;;;;;5015438;28;19929;-65
2022/10/07 05:08:34;;;;;;;;;;;21.70;99.90;;;;;;5007008;28;20333;-67
2022/10/07 05:11:02;;;;;;;;;;;21.60;99.90;;;;;;5011663;28;19937;-65
2022/10/07 05:13:37;;;;;;;;;;;21.60;99.90;;;;;;5011113;28;19929;-65
2022/10/07 05:16:06;;;;;;;;;;;21.60;99.90;;;;;;5002617;28;19952;-66
2022/10/07 05:18:34;;;;;;;;;;;21.60;99.90;;;;;;5002368;28;20308;-66
2022/10/07 05:21:04;;;;;;;;;;;21.60;99.90;;;;;;5023644;28;19947;-65
2022/10/07 05:23:32;;;;;;;;;;;21.60;99.90;;;;;;5022644;28;19929;-65
2022/10/07 05:26:03;;;;;;;;;;;21.50;99.90;;;;;;5002282;28;19925;-65
2022/10/07 05:28:32;;;;;;;;;;;21.40;99.90;;;;;;5007688;28;20327;-66
2022/10/07 05:31:10;;;;;;;;;;;21.50;99.90;;;;;;5010946;28;19940;-66
2022/10/07 05:33:38;;;;;;;;;;;21.40;99.90;;;;;;5004545;28;19929;-65
2022/10/07 05:36:06;;;;;;;;;;;21.40;99.90;;;;;;5011415;28;19925;-67
2022/10/07 05:38:35;;;;;;;;;;;21.40;99.90;;;;;;5000738;28;19941;-64
2022/10/07 05:41:04;;;;;;;;;;;21.30;99.90;;;;;;5003832;28;19941;-66
2022/10/07 05:43:33;;;;;;;;;;;21.30;99.90;;;;;;5002042;28;19933;-66
2022/10/07 05:46:07;;;;;;;;;;;21.20;99.90;;;;;;5020352;28;19925;-65
2022/10/07 05:48:38;;;;;;;;;;;21.20;99.90;;;;;;5003669;28;19929;-65
2022/10/07 05:51:07;;;;;;;;;;;21.20;99.90;;;;;;5019938;28;19952;-62
2022/10/07 05:53:34;;;;;;;;;;;21.20;99.90;;;;;;5000367;28;19936;-65
2022/10/07 05:56:05;;;;;;;;;;;21.10;99.90;;;;;;5012351;28;19929;-64
2022/10/07 05:58:34;;;;;;;;;;;21.10;99.90;;;;;;5007660;28;20305;-66
2022/10/07 06:01:05;;;;;;;;;;;21.10;99.90;;;;;;5002983;28;19937;-66
2022/10/07 06:03:38;;;;;;;;;;;21.10;99.90;;;;;;5006636;28;19929;-66
2022/10/07 06:06:05;;;;;;;;;;;21.10;99.90;;;;;;5013466;28;19932;-66
2022/10/07 06:08:32;;;;;;;;;;;21.10;99.90;;;;;;5009329;28;19926;-67
2022/10/07 06:13:49;;;;;;;;;;;21.10;99.90;;;;;;5007261;28;20354;-66
2022/10/07 06:16:16;;;;;;;;;;;21.10;99.90;;;;;;5006404;28;19930;-66
2022/10/07 06:18:44;;;;;;;;;;;21.10;99.90;;;;;;5010840;28;19930;-66
2022/10/07 06:21:12;;;;;;;;;;;21.20;99.90;;;;;;5018530;28;19926;-66
2022/10/07 06:23:39;;;;;;;;;;;21.20;99.90;;;;;;5016499;28;19953;-67
2022/10/07 06:26:10;;;;;;;;;;;21.20;99.90;;;;;;5006386;28;19930;-67
2022/10/07 06:28:37;;;;;;;;;;;21.20;99.90;;;;;;5017242;28;19929;-67
2022/10/07 06:31:06;;;;;;;;;;;21.30;99.90;;;;;;5011580;28;20033;-66
2022/10/07 06:33:35;;;;;;;;;;;21.30;99.90;;;;;;5015905;28;20401;-66
2022/10/07 06:36:03;;;;;;;;;;;21.30;99.90;;;;;;5003366;28;19926;-68
2022/10/07 06:38:31;;;;;;;;;;;21.30;99.90;;;;;;5021595;28;19937;-67
2022/10/07 06:41:00;;;;;;;;;;;21.30;99.90;;;;;;5003233;28;20084;-67
2022/10/07 06:43:31;;;;;;;;;;;21.40;99.90;;;;;;5011784;28;19929;-68
2022/10/07 06:46:05;;;;;;;;;;;21.40;99.90;;;;;;5004618;28;19944;-67
2022/10/07 06:48:33;;;;;;;;;;;21.40;99.90;;;;;;5012515;28;19932;-67
2022/10/07 06:51:04;;;;;;;;;;;21.40;99.90;;;;;;5008451;28;19929;-67
2022/10/07 06:53:33;;;;;;;;;;;21.40;99.90;;;;;;5005848;28;19932;-66
2022/10/07 06:56:03;;;;;;;;;;;21.40;99.90;;;;;;5011595;28;19929;-63
2022/10/07 06:58:34;;;;;;;;;;;21.40;99.90;;;;;;4994676;28;19929;-66
2022/10/07 07:01:04;;;;;;;;;;;21.40;99.90;;;;;;5002485;28;19926;-67
2022/10/07 07:03:31;;;;;;;;;;;21.40;99.90;;;;;;5000402;28;19926;-67
2022/10/07 07:06:01;;;;;;;;;;;21.40;99.90;;;;;;5000652;28;19930;-66
2022/10/07 07:08:33;;;;;;;;;;;21.40;99.90;;;;;;5006732;28;20304;-66
2022/10/07 07:11:34;;;;;;;;;;;21.40;99.90;;;;;;5008919;28;19930;-66
2022/10/07 07:13:53;;;;;;;;;;;21.50;99.90;;;;;;5019621;28;19925;-68
2022/10/07 07:16:25;;;;;;;;;;;21.50;99.90;;;;;;5013811;28;19936;-66
2022/10/07 07:18:54;;;;;;;;;;;21.40;99.90;;;;;;5020298;28;20388;-68
2022/10/07 07:21:23;;;;;;;;;;;21.40;99.90;;;;;;5017679;28;20250;-64
2022/10/07 07:23:51;;;;;;;;;;;21.30;99.90;;;;;;5016116;28;19925;-67
2022/10/07 07:26:19;;;;;;;;;;;21.30;99.90;;;;;;5026364;28;19929;-67
2022/10/07 07:29:15;;;;;;;;;;;21.30;99.90;;;;;;5017562;28;19932;-66
2022/10/07 07:31:58;;;;;;;;;;;21.30;99.90;;;;;;5009155;28;19929;-65
2022/10/07 07:34:29;;;;;;;;;;;21.20;99.90;;;;;;5013753;28;19934;-65
2022/10/07 07:36:56;;;;;;;;;;;21.20;99.90;;;;;;5013300;28;19929;-66
2022/10/07 07:39:29;;;;;;;;;;;21.20;99.90;;;;;;5015202;28;19928;-67
2022/10/07 07:42:04;;;;;;;;;;;21.10;99.90;;;;;;5005161;28;19930;-67
2022/10/07 07:44:32;;;;;;;;;;;21.10;99.90;;;;;;5026790;28;19936;-68
2022/10/07 07:47:02;;;;;;;;;;;21.10;99.90;;;;;;5020318;28;19934;-68
2022/10/07 07:49:31;;;;;;;;;;;21.10;99.90;;;;;;5011586;28;19933;-66
2022/10/07 07:51:59;;;;;;;;;;;21.10;99.90;;;;;;5022282;28;20419;-67
2022/10/07 07:54:31;;;;;;;;;;;21.10;99.90;;;;;;5006750;28;19929;-68
2022/10/07 07:56:59;;;;;;;;;;;21.10;99.90;;;;;;5021111;28;19944;-67
2022/10/07 07:59:30;;;;;;;;;;;21.10;99.90;;;;;;5016195;28;20400;-68
2022/10/07 08:01:58;;;;;;;;;;;21.10;99.90;;;;;;5010591;28;19926;-68
2022/10/07 08:04:25;;;;;;;;;;;21.10;99.90;;;;;;5024570;28;19929;-68
2022/10/07 08:06:54;;;;;;;;;;;21.10;99.90;;;;;;5013852;28;19937;-68
2022/10/07 08:09:23;;;;;;;;;;;21.10;99.90;;;;;;5021300;28;19936;-68
2022/10/07 08:11:51;;;;;;;;;;;21.10;99.90;;;;;;5020410;28;19926;-68
2022/10/07 08:14:18;;;;;;;;;;;21.20;99.90;;;;;;5018497;28;19941;-68
2022/10/07 08:16:49;;;;;;;;;;;21.20;99.90;;;;;;4999341;28;19992;-67
2022/10/07 08:19:16;;;;;;;;;;;21.20;99.90;;;;;;5016777;28;19930;-68
2022/10/07 08:21:44;;;;;;;;;;;21.30;99.90;;;;;;5003927;28;20427;-67
2022/10/07 08:24:16;;;;;;;;;;;21.30;99.90;;;;;;5015142;28;19929;-66
2022/10/07 08:26:43;;;;;;;;;;;21.30;99.90;;;;;;5014232;28;19937;-69
2022/10/07 08:29:14;;;;;;;;;;;21.40;99.90;;;;;;5018682;28;19937;-67
2022/10/07 08:31:41;;;;;;;;;;;21.40;99.90;;;;;;5020210;28;19929;-70
2022/10/07 08:34:08;;;;;;;;;;;21.50;99.90;;;;;;5030113;28;19938;-69
2022/10/07 08:36:36;;;;;;;;;;;21.50;99.90;;;;;;5022127;28;19933;-67
2022/10/07 08:39:03;;;;;;;;;;;21.50;99.90;;;;;;5018827;28;19926;-68
2022/10/07 08:41:33;;;;;;;;;;;21.60;99.90;;;;;;5020601;28;20312;-68
2022/10/07 08:44:16;;;;;;;;;;;21.60;99.90;;;;;;5007226;28;20212;-68
2022/10/07 08:46:52;;;;;;;;;;;21.60;99.90;;;;;;4995421;28;20460;-67
2022/10/07 08:49:39;;;;;;;;;;;21.60;99.90;;;;;;5003712;28;19945;-67
2022/10/07 08:52:22;;;;;;;;;;;21.60;99.90;;;;;;5010773;28;19948;-67
2022/10/07 08:54:49;;;;;;;;;;;21.60;99.90;;;;;;5003219;28;19933;-68
2022/10/07 08:57:21;;;;;;;;;;;21.60;99.90;;;;;;5010518;28;19930;-69
2022/10/07 08:59:51;;;;;;;;;;;21.50;99.90;;;;;;5016075;28;19930;-67
2022/10/07 09:02:21;;;;;;;;;;;21.50;99.90;;;;;;5017216;28;19936;-68
2022/10/07 09:05:04;;;;;;;;;;;21.50;99.90;;;;;;5003407;28;19925;-67
2022/10/07 09:07:33;;;;;;;;;;;21.50;99.90;;;;;;5002173;28;19940;-68
2022/10/07 09:10:24;;;;;;;;;;;21.40;99.90;;;;;;5008878;28;19930;-66
2022/10/07 09:12:56;;;;;;;;;;;21.40;99.90;;;;;;4992667;28;20085;-66
2022/10/07 09:15:36;;;;;;;;;;;21.30;99.90;;;;;;4997008;28;19933;-68
2022/10/07 09:18:24;;;;;;;;;;;21.30;99.90;;;;;;5014959;28;19937;-68
2022/10/07 09:20:52;;;;;;;;;;;21.30;99.90;;;;;;5023097;28;19925;-68
2022/10/07 09:23:24;;;;;;;;;;;21.30;99.90;;;;;;5017706;28;19925;-66
2022/10/07 09:25:51;;;;;;;;;;;21.30;99.90;;;;;;5012498;28;19934;-68
2022/10/07 09:28:20;;;;;;;;;;;21.20;99.90;;;;;;4998831;28;19929;-67
2022/10/07 09:30:47;;;;;;;;;;;21.20;99.90;;;;;;5026267;28;19940;-67
2022/10/07 09:33:17;;;;;;;;;;;21.20;99.90;;;;;;5017760;28;19952;-68
2022/10/07 09:35:51;;;;;;;;;;;21.20;99.90;;;;;;5020098;28;19936;-67
2022/10/07 09:38:31;;;;;;;;;;;21.10;99.90;;;;;;5018241;28;19932;-68
2022/10/07 09:41:15;;;;;;;;;;;21.10;99.90;;;;;;5009169;28;19952;-68
2022/10/07 09:43:48;;;;;;;;;;;21.10;99.90;;;;;;5000518;28;20351;-66
2022/10/07 09:46:33;;;;;;;;;;;21.20;99.90;;;;;;5016923;28;19929;-67
2022/10/07 09:49:03;;;;;;;;;;;21.20;99.90;;;;;;5024996;28;20017;-67
2022/10/07 09:51:31;;;;;;;;;;;21.10;99.90;;;;;;5022876;28;19933;-66
2022/10/07 09:54:03;;;;;;;;;;;21.10;99.90;;;;;;5011885;28;19936;-67
2022/10/07 09:56:43;;;;;;;;;;;21.20;99.90;;;;;;5019965;28;19926;-68
2022/10/07 09:59:10;;;;;;;;;;;21.30;99.90;;;;;;5010924;28;19952;-66
2022/10/07 10:01:40;;;;;;;;;;;21.30;99.90;;;;;;5009702;28;20394;-67
2022/10/07 10:04:15;;;;;;;;;;;21.40;99.90;;;;;;5009656;28;19930;-67
2022/10/07 10:06:46;;;;;;;;;;;21.50;99.90;;;;;;5017401;28;19926;-65
2022/10/07 10:09:17;;;;;;;;;;;21.60;99.90;;;;;;5017453;28;19936;-66
2022/10/07 10:11:59;;;;;;;;;;;21.60;99.90;;;;;;5006875;28;20460;-67
2022/10/07 10:14:41;;;;;;;;;;;21.60;99.90;;;;;;5017049;28;19929;-67
2022/10/07 10:17:27;;;;;;;;;;;21.60;99.90;;;;;;5004076;28;19926;-67
2022/10/07 10:19:54;;;;;;;;;;;21.60;99.90;;;;;;5009323;28;20488;-65
2022/10/07 10:22:26;;;;;;;;;;;21.60;99.90;;;;;;5019305;28;19933;-66
2022/10/07 10:28:03;;;;;;;;;;;21.60;99.90;;;;;;5022104;28;19929;-68
2022/10/07 10:30:31;;;;;;;;;;;21.60;99.90;;;;;;4997137;28;19956;-68
2022/10/07 10:33:17;;;;;;;;;;;21.50;99.90;;;;;;5010754;28;19929;-68
2022/10/07 10:35:48;;;;;;;;;;;21.50;99.90;;;;;;5005498;28;19930;-68
2022/10/07 10:38:24;;;;;;;;;;;21.50;99.90;;;;;;5016885;28;19933;-67
2022/10/07 10:40:54;;;;;;;;;;;21.50;99.90;;;;;;5017207;28;20397;-67
2022/10/07 10:43:24;;;;;;;;;;;21.50;99.90;;;;;;5005123;28;19930;-68
2022/10/07 10:46:10;;;;;;;;;;;21.40;99.90;;;;;;5025364;28;19952;-68
2022/10/07 10:48:46;;;;;;;;;;;21.40;99.90;;;;;;5017011;28;20299;-67
2022/10/07 10:51:22;;;;;;;;;;;21.40;99.90;;;;;;5016686;28;20437;-67
2022/10/07 10:53:50;;;;;;;;;;;21.30;99.90;;;;;;5014352;28;19940;-67
2022/10/07 10:56:22;;;;;;;;;;;21.30;99.90;;;;;;5021730;28;19936;-68
2022/10/07 10:59:08;;;;;;;;;;;21.30;99.90;;;;;;5000136;28;20298;-65
2022/10/07 11:01:36;;;;;;;;;;;21.30;99.90;;;;;;5012645;28;19952;-67
2022/10/07 11:04:27;;;;;;;;;;;21.30;99.90;;;;;;5022829;28;19925;-67
2022/10/07 11:06:58;;;;;;;;;;;21.30;99.90;;;;;;5006677;28;20039;-67
2022/10/07 11:09:31;;;;;;;;;;;21.20;99.90;;;;;;5012041;28;19937;-68
2022/10/07 11:12:01;;;;;;;;;;;21.20;99.90;;;;;;5011594;28;19929;-67
2022/10/07 11:14:29;;;;;;;;;;;21.20;99.90;;;;;;5016634;28;20099;-65
2022/10/07 11:17:02;;;;;;;;;;;21.20;99.90;;;;;;5018961;28;19933;-66
2022/10/07 11:19:31;;;;;;;;;;;21.20;99.90;;;;;;5015517;28;19953;-67
2022/10/07 11:21:59;;;;;;;;;;;21.30;99.90;;;;;;5010946;28;19955;-67
2022/10/07 11:24:29;;;;;;;;;;;21.30;99.90;;;;;;5018762;28;19940;-65
2022/10/07 11:26:58;;;;;;;;;;;21.30;99.90;;;;;;5034077;28;19926;-65
2022/10/07 11:29:29;;;;;;;;;;;21.30;99.90;;;;;;5011125;28;19930;-67
2022/10/07 11:32:09;;;;;;;;;;;21.40;99.90;;;;;;5013676;28;19925;-67
2022/10/07 11:34:36;;;;;;;;;;;21.40;99.90;;;;;;5028837;28;19932;-66
2022/10/07 11:37:10;;;;;;;;;;;21.40;99.90;;;;;;4994211;28;20032;-66
2022/10/07 11:39:38;;;;;;;;;;;21.50;99.90;;;;;;5013749;28;19926;-66
2022/10/07 11:42:21;;;;;;;;;;;21.50;99.90;;;;;;5010648;28;19948;-65
2022/10/07 11:45:00;;;;;;;;;;;21.50;99.90;;;;;;5014337;28;19929;-65
2022/10/07 11:47:33;;;;;;;;;;;21.50;99.90;;;;;;5010114;28;20330;-68
2022/10/07 11:50:01;;;;;;;;;;;21.60;99.90;;;;;;5017113;28;20317;-66
2022/10/07 11:52:30;;;;;;;;;;;21.60;99.90;;;;;;5008099;28;19934;-68
2022/10/07 11:55:03;;;;;;;;;;;21.60;99.90;;;;;;5015205;28;20472;-68
2022/10/07 11:57:33;;;;;;;;;;;21.60;99.90;;;;;;5020715;28;19925;-67
2022/10/07 12:00:04;;;;;;;;;;;21.60;99.90;;;;;;5029208;28;19925;-69
2022/10/07 12:02:44;;;;;;;;;;;21.60;99.90;;;;;;5018182;28;19933;-67
2022/10/07 12:05:31;;;;;;;;;;;21.60;99.90;;;;;;5019225;28;19934;-67
2022/10/07 12:08:17;;;;;;;;;;;21.60;99.90;;;;;;5009108;28;19929;-68
2022/10/07 12:10:44;;;;;;;;;;;21.60;99.90;;;;;;5024225;28;19929;-68
2022/10/07 12:13:11;;;;;;;;;;;21.60;99.90;;;;;;5011705;28;19933;-67
2022/10/07 12:15:40;;;;;;;;;;;21.50;99.90;;;;;;5022788;28;19926;-68
2022/10/07 12:18:17;;;;;;;;;;;21.50;99.90;;;;;;5010950;28;19937;-67
2022/10/07 12:20:51;;;;;;;;;;;21.50;99.90;;;;;;5020155;28;19925;-68
2022/10/07 12:23:19;;;;;;;;;;;21.50;99.90;;;;;;5010218;28;20208;-63
2022/10/07 12:25:49;;;;;;;;;;;21.50;99.90;;;;;;5029056;28;20142;-66
2022/10/07 12:28:24;;;;;;;;;;;21.50;99.90;;;;;;5022646;28;19930;-67
2022/10/07 12:30:53;;;;;;;;;;;21.40;99.90;;;;;;5019090;28;19937;-67
2022/10/07 12:33:26;;;;;;;;;;;21.40;99.90;;;;;;5012355;28;19926;-67
2022/10/07 12:35:54;;;;;;;;;;;21.40;99.90;;;;;;5017483;28;19939;-67
2022/10/07 12:38:23;;;;;;;;;;;21.40;99.90;;;;;;5012533;28;20363;-67
2022/10/07 12:41:02;;;;;;;;;;;21.40;99.90;;;;;;5014315;28;19925;-67
2022/10/07 12:43:35;;;;;;;;;;;21.40;99.90;;;;;;5008265;28;20396;-67
2022/10/07 12:46:09;;;;;;;;;;;21.30;99.90;;;;;;5015778;28;20334;-67
2022/10/07 12:48:39;;;;;;;;;;;21.30;99.90;;;;;;5023239;28;19932;-67
2022/10/07 12:51:12;;;;;;;;;;;21.30;99.90;;;;;;5023159;28;19933;-65
2022/10/07 12:53:42;;;;;;;;;;;21.30;99.90;;;;;;5020285;28;19980;-68
2022/10/07 12:56:16;;;;;;;;;;;21.30;99.90;;;;;;5022636;28;19929;-67
2022/10/07 13:01:44;;;;;;;;;;;21.30;99.90;;;;;;5016409;28;19944;-67
2022/10/07 13:04:13;;;;;;;;;;;21.30;99.90;;;;;;5021964;28;19925;-66
2022/10/07 13:06:54;;;;;;;;;;;21.40;99.90;;;;;;5017181;28;19929;-67
2022/10/07 13:09:39;;;;;;;;;;;21.40;99.90;;;;;;5015397;28;19932;-67
2022/10/07 13:12:13;;;;;;;;;;;21.50;99.90;;;;;;5010065;28;19933;-68
2022/10/07 13:14:43;;;;;;;;;;;21.50;99.90;;;;;;5020837;28;19929;-68
2022/10/07 13:17:16;;;;;;;;;;;21.60;99.90;;;;;;5011999;28;20394;-67
2022/10/07 13:19:48;;;;;;;;;;;21.60;99.90;;;;;;5009765;28;20423;-66
2022/10/07 13:22:16;;;;;;;;;;;21.60;99.90;;;;;;5014107;28;19944;-67
2022/10/07 13:24:48;;;;;;;;;;;21.60;99.90;;;;;;5015823;28;20267;-68
2022/10/07 13:27:23;;;;;;;;;;;21.70;99.90;;;;;;5011110;28;19926;-67
2022/10/07 13:29:51;;;;;;;;;;;21.70;99.90;;;;;;5019201;28;19925;-67
2022/10/07 13:32:23;;;;;;;;;;;21.80;99.90;;;;;;5011392;28;20047;-67
2022/10/07 13:34:53;;;;;;;;;;;21.80;99.90;;;;;;5006620;28;19925;-68
2022/10/07 13:37:26;;;;;;;;;;;21.80;99.90;;;;;;5016559;28;19940;-67
2022/10/07 13:39:54;;;;;;;;;;;21.80;99.90;;;;;;5019690;28;19936;-67
2022/10/07 13:42:25;;;;;;;;;;;21.80;99.90;;;;;;5013123;28;19925;-66
2022/10/07 13:44:53;;;;;;;;;;;21.80;99.90;;;;;;5015917;28;20424;-66
2022/10/07 13:47:21;;;;;;;;;;;21.70;99.90;;;;;;5013625;28;19936;-67
2022/10/07 13:49:50;;;;;;;;;;;21.70;99.90;;;;;;5024001;28;19925;-67
2022/10/07 13:52:19;;;;;;;;;;;21.70;99.90;;;;;;5036268;28;19931;-67
2022/10/07 13:54:50;;;;;;;;;;;21.70;99.90;;;;;;4999490;28;19930;-66
2022/10/07 13:57:18;;;;;;;;;;;21.60;99.90;;;;;;5023305;28;19932;-68
2022/10/07 13:59:48;;;;;;;;;;;21.60;99.90;;;;;;5021190;28;19949;-65
2022/10/07 14:02:15;;;;;;;;;;;21.60;99.90;;;;;;5022974;28;19926;-67
2022/10/07 14:04:51;;;;;;;;;;;21.50;99.90;;;;;;5027320;28;20001;-68
2022/10/07 14:07:19;;;;;;;;;;;21.50;99.90;;;;;;5020540;28;19933;-68
2022/10/07 14:09:59;;;;;;;;;;;21.50;99.90;;;;;;5013050;28;19932;-68
2022/10/07 14:12:34;;;;;;;;;;;21.50;99.90;;;;;;5027117;28;19926;-68
2022/10/07 14:15:02;;;;;;;;;;;21.50;99.90;;;;;;5026314;28;19929;-67
2022/10/07 14:17:29;;;;;;;;;;;21.50;99.90;;;;;;5007965;28;19935;-66
2022/10/07 14:19:58;;;;;;;;;;;21.40;99.90;;;;;;5017763;28;19926;-69
2022/10/07 14:22:36;;;;;;;;;;;21.40;99.90;;;;;;5015517;28;19948;-67
2022/10/07 14:25:05;;;;;;;;;;;21.40;99.90;;;;;;5032461;28;19925;-68
2022/10/07 14:27:51;;;;;;;;;;;21.40;99.90;;;;;;5022175;28;19932;-68
2022/10/07 14:36:13;;;;;;;;;;;21.40;99.90;;;;;;5035383;28;20402;-68
2022/10/07 14:38:41;;;;;;;;;;;21.40;99.90;;;;;;5022211;28;19929;-66
2022/10/07 14:41:09;;;;;;;;;;;21.40;99.90;;;;;;5020799;28;19936;-66
2022/10/07 14:43:37;;;;;;;;;;;21.40;99.90;;;;;;5025268;28;19925;-69
2022/10/07 14:46:08;;;;;;;;;;;21.40;99.90;;;;;;5028437;28;19933;-67
2022/10/07 14:48:36;;;;;;;;;;;21.40;99.90;;;;;;5027553;28;19943;-68
2022/10/07 14:51:03;;;;;;;;;;;21.40;99.90;;;;;;5019380;28;19925;-67
2022/10/07 14:53:30;;;;;;;;;;;21.40;99.90;;;;;;5025627;28;19925;-68
2022/10/07 14:55:57;;;;;;;;;;;21.40;99.90;;;;;;5017536;28;20416;-69